SBOSBO MIA / KMIA
Speedbird OnlineSpeedbird Online MIA / KMIA

Miami International Airport
17:39 31.9°C

Location Miami, United States
Latitude: 25.79319953918457
Longitude: -80.29060363769531
Local Time 17:39 on 29 May 2024
UTC -4 hours (America/New_York)
Currency £1 equals USD 1.28
METAR KMIA 292053Z 14012G22KT 10SM FEW035 FEW060 SCT250 32/24 A2999 RMK AO2 SLP154 CB DSNT S-SW T03170239 58008 $
TAF KMIA 292059Z 2921/3024 15012KT P6SM VCTS SCT025CB BKN050 FM300100 VRB04KT P6SM SCT030 SCT060 FM301600 06007KT P6SM VCSH SCT030 SCT250
Weather As Of 29 May 2024 17:39
Description Scattered clouds
Wind 22 km/h from South-East (140°)
Cloud Cover 40%
Precipitation Rain: none, Snow: none
Sunrise 06:30
Sunset 20:07
NOTAM 63 active NOTAM
Rotations During the last 90 days there were
114 flights from LHR
109 flights to LHR
Lounges Global (Turkish Airlines) Lounge, Central Terminal
American Airlines Flagship Lounge, North Terminal
American Airlines Admirals Club , North Terminal
American Airlines Admirals Club, North Terminal
Web Airport Website | Wikipedia
Codes IATA: MIA
ICAO: KMIA
Altitude 2 Meter / 8 Feet
Distance 7,149 KM / 4,442 Miles
from London.
Runways
RunwayLength (m)Surface
08L2621Asphalt
08R3202Asphalt
093962Asphalt
122851Asphalt
26L3202Asphalt
26R2621Asphalt
273962Asphalt
302851Asphalt
Radio
TypeDescriptionFrequency
APPAPP120.5
ATISATIS119.15
CLDCLNC DEL120.35
DEPDEP119.45
GNDGND121.8
TWRTWR118.3
UNICUNICOM123
Live ATC



Support Speedbird Online

© 2017-2024 Speedbird Online